sensor_id;sensor_type;location;lat;lon;timestamp;P1;durP1;ratioP1;P2;durP2;ratioP2
58015;SDS011;43809;52.110;20.964;2023-04-03T00:00:57;2.33;;;1.10;;
58015;SDS011;43809;52.110;20.964;2023-04-03T00:02:57;2.47;;;1.17;;
58015;SDS011;43809;52.110;20.964;2023-04-03T00:04:57;2.25;;;1.23;;
58015;SDS011;43809;52.110;20.964;2023-04-03T00:06:57;3.38;;;1.35;;
58015;SDS011;43809;52.110;20.964;2023-04-03T00:08:58;3.33;;;1.33;;
58015;SDS011;43809;52.110;20.964;2023-04-03T00:10:58;2.75;;;1.15;;
58015;SDS011;43809;52.110;20.964;2023-04-03T00:12:58;3.05;;;1.52;;
58015;SDS011;43809;52.110;20.964;2023-04-03T00:14:59;3.25;;;1.50;;
58015;SDS011;43809;52.110;20.964;2023-04-03T00:16:59;3.50;;;1.30;;
58015;SDS011;43809;52.110;20.964;2023-04-03T00:18:59;2.80;;;1.20;;
58015;SDS011;43809;52.110;20.964;2023-04-03T00:21:00;4.07;;;1.30;;
58015;SDS011;43809;52.110;20.964;2023-04-03T00:23:00;4.47;;;1.30;;
58015;SDS011;43809;52.110;20.964;2023-04-03T00:25:00;2.10;;;1.27;;
58015;SDS011;43809;52.110;20.964;2023-04-03T00:27:01;2.15;;;0.90;;
58015;SDS011;43809;52.110;20.964;2023-04-03T00:29:01;2.28;;;1.00;;
58015;SDS011;43809;52.110;20.964;2023-04-03T00:31:01;1.48;;;1.00;;
58015;SDS011;43809;52.110;20.964;2023-04-03T00:33:01;3.15;;;1.25;;
58015;SDS011;43809;52.110;20.964;2023-04-03T00:35:02;2.88;;;1.02;;
58015;SDS011;43809;52.110;20.964;2023-04-03T00:37:03;2.45;;;1.50;;
58015;SDS011;43809;52.110;20.964;2023-04-03T00:39:03;2.92;;;1.10;;
58015;SDS011;43809;52.110;20.964;2023-04-03T00:41:03;1.35;;;1.13;;
58015;SDS011;43809;52.110;20.964;2023-04-03T00:43:23;2.38;;;1.25;;
58015;SDS011;43809;52.110;20.964;2023-04-03T00:45:25;3.50;;;1.20;;
58015;SDS011;43809;52.110;20.964;2023-04-03T00:47:26;3.55;;;1.20;;
58015;SDS011;43809;52.110;20.964;2023-04-03T00:49:26;2.28;;;1.20;;
58015;SDS011;43809;52.110;20.964;2023-04-03T00:51:27;2.80;;;1.02;;
58015;SDS011;43809;52.110;20.964;2023-04-03T00:53:30;3.90;;;1.30;;
58015;SDS011;43809;52.110;20.964;2023-04-03T00:55:31;3.92;;;1.50;;
58015;SDS011;43809;52.110;20.964;2023-04-03T00:57:31;4.22;;;1.23;;
58015;SDS011;43809;52.110;20.964;2023-04-03T00:59:33;2.63;;;1.13;;
58015;SDS011;43809;52.110;20.964;2023-04-03T01:01:34;1.90;;;1.15;;
58015;SDS011;43809;52.110;20.964;2023-04-03T01:03:35;4.10;;;1.10;;
58015;SDS011;43809;52.110;20.964;2023-04-03T01:05:36;2.72;;;1.20;;
58015;SDS011;43809;52.110;20.964;2023-04-03T01:07:37;2.30;;;1.27;;
58015;SDS011;43809;52.110;20.964;2023-04-03T01:09:37;4.32;;;1.10;;
58015;SDS011;43809;52.110;20.964;2023-04-03T01:11:38;3.53;;;1.10;;
58015;SDS011;43809;52.110;20.964;2023-04-03T01:13:38;2.15;;;0.95;;
58015;SDS011;43809;52.110;20.964;2023-04-03T01:15:38;3.00;;;1.55;;
58015;SDS011;43809;52.110;20.964;2023-04-03T01:19:38;3.30;;;1.10;;
58015;SDS011;43809;52.110;20.964;2023-04-03T01:21:54;5.22;;;1.40;;
58015;SDS011;43809;52.110;20.964;2023-04-03T01:25:56;2.30;;;1.10;;
58015;SDS011;43809;52.110;20.964;2023-04-03T01:27:57;2.78;;;1.08;;
58015;SDS011;43809;52.110;20.964;2023-04-03T01:29:57;3.70;;;1.27;;
58015;SDS011;43809;52.110;20.964;2023-04-03T01:31:59;2.40;;;1.20;;
58015;SDS011;43809;52.110;20.964;2023-04-03T01:33:59;2.28;;;0.90;;
58015;SDS011;43809;52.110;20.964;2023-04-03T01:36:00;2.53;;;1.20;;
58015;SDS011;43809;52.110;20.964;2023-04-03T01:38:00;3.10;;;0.90;;
58015;SDS011;43809;52.110;20.964;2023-04-03T01:40:00;2.55;;;1.05;;
58015;SDS011;43809;52.110;20.964;2023-04-03T01:42:01;1.95;;;0.90;;
58015;SDS011;43809;52.110;20.964;2023-04-03T01:44:01;2.83;;;0.95;;
58015;SDS011;43809;52.110;20.964;2023-04-03T01:46:01;2.95;;;1.10;;
58015;SDS011;43809;52.110;20.964;2023-04-03T01:48:01;2.45;;;1.10;;
58015;SDS011;43809;52.110;20.964;2023-04-03T01:50:02;1.98;;;1.00;;
58015;SDS011;43809;52.110;20.964;2023-04-03T01:52:03;1.83;;;0.95;;
58015;SDS011;43809;52.110;20.964;2023-04-03T01:54:03;1.23;;;1.08;;
58015;SDS011;43809;52.110;20.964;2023-04-03T01:56:04;1.45;;;1.02;;
58015;SDS011;43809;52.110;20.964;2023-04-03T01:58:04;1.73;;;0.90;;
58015;SDS011;43809;52.110;20.964;2023-04-03T02:00:04;2.50;;;1.30;;
58015;SDS011;43809;52.110;20.964;2023-04-03T02:02:05;2.80;;;1.05;;
58015;SDS011;43809;52.110;20.964;2023-04-03T02:04:05;2.75;;;1.20;;
58015;SDS011;43809;52.110;20.964;2023-04-03T02:06:06;1.88;;;1.00;;
58015;SDS011;43809;52.110;20.964;2023-04-03T02:08:06;1.98;;;1.42;;
58015;SDS011;43809;52.110;20.964;2023-04-03T02:10:06;2.05;;;1.10;;
58015;SDS011;43809;52.110;20.964;2023-04-03T02:12:07;4.88;;;1.05;;
58015;SDS011;43809;52.110;20.964;2023-04-03T02:14:07;3.15;;;1.10;;
58015;SDS011;43809;52.110;20.964;2023-04-03T02:16:08;2.42;;;1.20;;
58015;SDS011;43809;52.110;20.964;2023-04-03T02:18:09;4.30;;;1.17;;
58015;SDS011;43809;52.110;20.964;2023-04-03T02:20:10;2.65;;;1.00;;
58015;SDS011;43809;52.110;20.964;2023-04-03T02:22:10;3.38;;;1.15;;
58015;SDS011;43809;52.110;20.964;2023-04-03T02:24:10;4.13;;;1.20;;
58015;SDS011;43809;52.110;20.964;2023-04-03T02:26:11;4.75;;;1.35;;
58015;SDS011;43809;52.110;20.964;2023-04-03T02:28:12;2.28;;;1.23;;
58015;SDS011;43809;52.110;20.964;2023-04-03T02:30:12;2.88;;;1.25;;
58015;SDS011;43809;52.110;20.964;2023-04-03T02:32:14;3.03;;;1.20;;
58015;SDS011;43809;52.110;20.964;2023-04-03T02:34:14;2.45;;;1.25;;
58015;SDS011;43809;52.110;20.964;2023-04-03T02:36:15;3.05;;;1.13;;
58015;SDS011;43809;52.110;20.964;2023-04-03T02:38:15;3.00;;;1.35;;
58015;SDS011;43809;52.110;20.964;2023-04-03T02:40:17;3.08;;;1.40;;
58015;SDS011;43809;52.110;20.964;2023-04-03T02:44:26;4.05;;;1.00;;
58015;SDS011;43809;52.110;20.964;2023-04-03T02:46:26;3.03;;;1.20;;
58015;SDS011;43809;52.110;20.964;2023-04-03T02:48:27;3.22;;;1.38;;
58015;SDS011;43809;52.110;20.964;2023-04-03T02:50:27;2.00;;;1.00;;
58015;SDS011;43809;52.110;20.964;2023-04-03T02:52:27;2.28;;;1.02;;
58015;SDS011;43809;52.110;20.964;2023-04-03T02:54:27;2.10;;;1.00;;
58015;SDS011;43809;52.110;20.964;2023-04-03T02:56:30;2.90;;;1.20;;
58015;SDS011;43809;52.110;20.964;2023-04-03T02:58:30;2.70;;;1.20;;
58015;SDS011;43809;52.110;20.964;2023-04-03T03:00:30;3.22;;;1.40;;
58015;SDS011;43809;52.110;20.964;2023-04-03T03:02:30;3.22;;;1.33;;
58015;SDS011;43809;52.110;20.964;2023-04-03T03:04:31;2.75;;;1.10;;
58015;SDS011;43809;52.110;20.964;2023-04-03T03:06:31;2.03;;;1.30;;
58015;SDS011;43809;52.110;20.964;2023-04-03T03:08:31;2.75;;;1.48;;
58015;SDS011;43809;52.110;20.964;2023-04-03T03:10:31;3.45;;;1.40;;
58015;SDS011;43809;52.110;20.964;2023-04-03T03:12:32;1.85;;;1.40;;
58015;SDS011;43809;52.110;20.964;2023-04-03T03:14:32;3.28;;;1.60;;
58015;SDS011;43809;52.110;20.964;2023-04-03T03:16:32;1.63;;;1.30;;
58015;SDS011;43809;52.110;20.964;2023-04-03T03:18:32;2.70;;;1.33;;
58015;SDS011;43809;52.110;20.964;2023-04-03T03:20:33;3.33;;;1.40;;
58015;SDS011;43809;52.110;20.964;2023-04-03T03:22:34;2.55;;;1.15;;
58015;SDS011;43809;52.110;20.964;2023-04-03T03:24:34;3.83;;;1.30;;
58015;SDS011;43809;52.110;20.964;2023-04-03T03:26:34;2.38;;;1.00;;
58015;SDS011;43809;52.110;20.964;2023-04-03T03:28:35;3.92;;;1.40;;
58015;SDS011;43809;52.110;20.964;2023-04-03T03:30:36;2.03;;;0.98;;
58015;SDS011;43809;52.110;20.964;2023-04-03T03:32:36;4.78;;;1.58;;
58015;SDS011;43809;52.110;20.964;2023-04-03T03:34:36;4.25;;;1.67;;
58015;SDS011;43809;52.110;20.964;2023-04-03T03:36:37;3.92;;;1.27;;
58015;SDS011;43809;52.110;20.964;2023-04-03T03:38:37;5.40;;;1.58;;
58015;SDS011;43809;52.110;20.964;2023-04-03T03:40:37;7.30;;;1.70;;
58015;SDS011;43809;52.110;20.964;2023-04-03T03:42:37;2.20;;;1.40;;
58015;SDS011;43809;52.110;20.964;2023-04-03T03:44:37;4.07;;;1.40;;
58015;SDS011;43809;52.110;20.964;2023-04-03T03:46:37;5.00;;;1.48;;
58015;SDS011;43809;52.110;20.964;2023-04-03T03:48:38;1.77;;;1.20;;
58015;SDS011;43809;52.110;20.964;2023-04-03T03:50:38;3.80;;;1.40;;
58015;SDS011;43809;52.110;20.964;2023-04-03T03:52:38;4.05;;;1.30;;
58015;SDS011;43809;52.110;20.964;2023-04-03T03:54:38;2.42;;;1.60;;
58015;SDS011;43809;52.110;20.964;2023-04-03T03:56:39;3.92;;;1.65;;
58015;SDS011;43809;52.110;20.964;2023-04-03T03:58:39;3.05;;;1.27;;
58015;SDS011;43809;52.110;20.964;2023-04-03T04:00:40;3.78;;;1.45;;
58015;SDS011;43809;52.110;20.964;2023-04-03T04:02:40;3.47;;;1.30;;
58015;SDS011;43809;52.110;20.964;2023-04-03T04:04:40;2.53;;;1.27;;
58015;SDS011;43809;52.110;20.964;2023-04-03T04:06:40;4.47;;;1.40;;
58015;SDS011;43809;52.110;20.964;2023-04-03T04:08:41;2.80;;;1.42;;
58015;SDS011;43809;52.110;20.964;2023-04-03T04:10:41;3.47;;;1.25;;
58015;SDS011;43809;52.110;20.964;2023-04-03T04:12:41;3.38;;;1.60;;
58015;SDS011;43809;52.110;20.964;2023-04-03T04:14:41;2.55;;;1.27;;
58015;SDS011;43809;52.110;20.964;2023-04-03T04:16:42;3.10;;;1.45;;
58015;SDS011;43809;52.110;20.964;2023-04-03T04:18:42;2.05;;;1.38;;
58015;SDS011;43809;52.110;20.964;2023-04-03T04:20:44;3.78;;;1.30;;
58015;SDS011;43809;52.110;20.964;2023-04-03T04:22:44;2.80;;;1.48;;
58015;SDS011;43809;52.110;20.964;2023-04-03T04:24:44;6.97;;;1.67;;
58015;SDS011;43809;52.110;20.964;2023-04-03T04:26:45;2.90;;;1.60;;
58015;SDS011;43809;52.110;20.964;2023-04-03T04:28:45;3.40;;;1.52;;
58015;SDS011;43809;52.110;20.964;2023-04-03T04:30:45;3.08;;;1.33;;
58015;SDS011;43809;52.110;20.964;2023-04-03T04:35:09;2.47;;;1.45;;
58015;SDS011;43809;52.110;20.964;2023-04-03T04:37:10;2.97;;;1.50;;
58015;SDS011;43809;52.110;20.964;2023-04-03T04:39:10;4.30;;;1.60;;
58015;SDS011;43809;52.110;20.964;2023-04-03T04:41:10;2.38;;;1.42;;
58015;SDS011;43809;52.110;20.964;2023-04-03T04:43:10;4.07;;;1.52;;
58015;SDS011;43809;52.110;20.964;2023-04-03T04:45:14;4.60;;;1.70;;
58015;SDS011;43809;52.110;20.964;2023-04-03T04:47:14;4.85;;;1.98;;
58015;SDS011;43809;52.110;20.964;2023-04-03T04:49:15;3.95;;;1.70;;
58015;SDS011;43809;52.110;20.964;2023-04-03T04:51:15;4.03;;;1.42;;
58015;SDS011;43809;52.110;20.964;2023-04-03T04:53:15;4.57;;;1.52;;
58015;SDS011;43809;52.110;20.964;2023-04-03T04:55:15;3.65;;;1.70;;
58015;SDS011;43809;52.110;20.964;2023-04-03T04:57:16;2.90;;;1.33;;
58015;SDS011;43809;52.110;20.964;2023-04-03T04:59:16;4.85;;;1.65;;
58015;SDS011;43809;52.110;20.964;2023-04-03T05:01:16;3.67;;;1.65;;
58015;SDS011;43809;52.110;20.964;2023-04-03T05:03:16;3.05;;;1.35;;
58015;SDS011;43809;52.110;20.964;2023-04-03T05:05:16;3.03;;;1.52;;
58015;SDS011;43809;52.110;20.964;2023-04-03T05:07:17;2.50;;;1.48;;
58015;SDS011;43809;52.110;20.964;2023-04-03T05:09:17;3.33;;;1.40;;
58015;SDS011;43809;52.110;20.964;2023-04-03T05:11:18;2.88;;;1.25;;
58015;SDS011;43809;52.110;20.964;2023-04-03T05:13:18;3.67;;;1.50;;
58015;SDS011;43809;52.110;20.964;2023-04-03T05:15:18;3.08;;;1.50;;
58015;SDS011;43809;52.110;20.964;2023-04-03T05:17:19;2.80;;;1.40;;
58015;SDS011;43809;52.110;20.964;2023-04-03T05:19:20;2.50;;;1.50;;
58015;SDS011;43809;52.110;20.964;2023-04-03T05:21:23;3.55;;;1.45;;
58015;SDS011;43809;52.110;20.964;2023-04-03T05:23:26;3.53;;;1.40;;
58015;SDS011;43809;52.110;20.964;2023-04-03T05:25:26;2.78;;;1.40;;
58015;SDS011;43809;52.110;20.964;2023-04-03T05:27:26;3.83;;;1.40;;
58015;SDS011;43809;52.110;20.964;2023-04-03T05:29:28;5.10;;;1.80;;
58015;SDS011;43809;52.110;20.964;2023-04-03T05:31:28;3.78;;;1.63;;
58015;SDS011;43809;52.110;20.964;2023-04-03T05:33:29;2.55;;;1.50;;
58015;SDS011;43809;52.110;20.964;2023-04-03T05:35:29;3.95;;;1.60;;
58015;SDS011;43809;52.110;20.964;2023-04-03T05:37:30;3.47;;;1.40;;
58015;SDS011;43809;52.110;20.964;2023-04-03T05:39:30;4.00;;;1.98;;
58015;SDS011;43809;52.110;20.964;2023-04-03T05:41:31;3.58;;;1.58;;
58015;SDS011;43809;52.110;20.964;2023-04-03T05:43:31;3.65;;;1.45;;
58015;SDS011;43809;52.110;20.964;2023-04-03T05:45:33;4.00;;;1.63;;
58015;SDS011;43809;52.110;20.964;2023-04-03T05:47:33;2.30;;;1.40;;
58015;SDS011;43809;52.110;20.964;2023-04-03T05:49:34;3.17;;;1.60;;
58015;SDS011;43809;52.110;20.964;2023-04-03T05:51:35;4.93;;;1.63;;
58015;SDS011;43809;52.110;20.964;2023-04-03T05:53:35;3.65;;;1.55;;
58015;SDS011;43809;52.110;20.964;2023-04-03T05:55:39;5.13;;;1.50;;
58015;SDS011;43809;52.110;20.964;2023-04-03T05:57:39;6.35;;;1.83;;
58015;SDS011;43809;52.110;20.964;2023-04-03T05:59:39;4.72;;;1.67;;
58015;SDS011;43809;52.110;20.964;2023-04-03T06:01:40;5.13;;;1.70;;
58015;SDS011;43809;52.110;20.964;2023-04-03T06:03:40;3.00;;;1.55;;
58015;SDS011;43809;52.110;20.964;2023-04-03T06:05:40;3.67;;;1.58;;
58015;SDS011;43809;52.110;20.964;2023-04-03T06:07:41;3.35;;;1.75;;
58015;SDS011;43809;52.110;20.964;2023-04-03T06:09:41;5.15;;;1.55;;
58015;SDS011;43809;52.110;20.964;2023-04-03T06:11:42;3.80;;;1.58;;
58015;SDS011;43809;52.110;20.964;2023-04-03T06:13:42;2.67;;;1.45;;
58015;SDS011;43809;52.110;20.964;2023-04-03T06:15:42;2.47;;;1.35;;
58015;SDS011;43809;52.110;20.964;2023-04-03T06:17:42;4.40;;;1.70;;
58015;SDS011;43809;52.110;20.964;2023-04-03T06:19:43;3.00;;;1.25;;
58015;SDS011;43809;52.110;20.964;2023-04-03T06:21:43;3.78;;;1.60;;
58015;SDS011;43809;52.110;20.964;2023-04-03T06:23:43;3.08;;;1.20;;
58015;SDS011;43809;52.110;20.964;2023-04-03T06:25:44;3.17;;;1.40;;
58015;SDS011;43809;52.110;20.964;2023-04-03T06:27:45;2.42;;;1.23;;
58015;SDS011;43809;52.110;20.964;2023-04-03T06:29:45;2.88;;;1.17;;
58015;SDS011;43809;52.110;20.964;2023-04-03T06:31:46;2.63;;;1.05;;
58015;SDS011;43809;52.110;20.964;2023-04-03T06:33:46;4.43;;;1.60;;
58015;SDS011;43809;52.110;20.964;2023-04-03T06:35:46;2.28;;;1.38;;
58015;SDS011;43809;52.110;20.964;2023-04-03T06:37:46;2.38;;;1.50;;
58015;SDS011;43809;52.110;20.964;2023-04-03T06:39:47;2.00;;;1.20;;
58015;SDS011;43809;52.110;20.964;2023-04-03T06:41:47;3.58;;;1.20;;
58015;SDS011;43809;52.110;20.964;2023-04-03T06:43:48;2.60;;;1.23;;
58015;SDS011;43809;52.110;20.964;2023-04-03T06:45:48;2.63;;;1.27;;
58015;SDS011;43809;52.110;20.964;2023-04-03T06:47:48;3.97;;;1.20;;
58015;SDS011;43809;52.110;20.964;2023-04-03T06:49:48;2.60;;;1.02;;
58015;SDS011;43809;52.110;20.964;2023-04-03T06:51:48;2.20;;;1.40;;
58015;SDS011;43809;52.110;20.964;2023-04-03T06:53:49;2.95;;;1.30;;
58015;SDS011;43809;52.110;20.964;2023-04-03T06:55:50;2.28;;;1.00;;
58015;SDS011;43809;52.110;20.964;2023-04-03T06:57:50;2.37;;;1.37;;
58015;SDS011;43809;52.110;20.964;2023-04-03T06:59:51;3.70;;;1.20;;
58015;SDS011;43809;52.110;20.964;2023-04-03T07:01:51;2.38;;;1.30;;
58015;SDS011;43809;52.110;20.964;2023-04-03T07:03:51;1.73;;;1.20;;
58015;SDS011;43809;52.110;20.964;2023-04-03T07:05:52;3.35;;;1.10;;
58015;SDS011;43809;52.110;20.964;2023-04-03T07:07:52;5.67;;;1.80;;
58015;SDS011;43809;52.110;20.964;2023-04-03T07:09:52;4.72;;;1.58;;
58015;SDS011;43809;52.110;20.964;2023-04-03T07:11:53;5.28;;;1.80;;
58015;SDS011;43809;52.110;20.964;2023-04-03T07:13:53;4.03;;;1.58;;
58015;SDS011;43809;52.110;20.964;2023-04-03T07:15:53;2.65;;;1.60;;
58015;SDS011;43809;52.110;20.964;2023-04-03T07:17:54;3.53;;;1.60;;
58015;SDS011;43809;52.110;20.964;2023-04-03T07:19:55;5.32;;;2.10;;
58015;SDS011;43809;52.110;20.964;2023-04-03T07:21:55;2.08;;;1.55;;
58015;SDS011;43809;52.110;20.964;2023-04-03T07:23:55;2.63;;;1.60;;
58015;SDS011;43809;52.110;20.964;2023-04-03T07:25:56;8.93;;;4.45;;
58015;SDS011;43809;52.110;20.964;2023-04-03T07:27:56;10.13;;;5.57;;
58015;SDS011;43809;52.110;20.964;2023-04-03T07:29:56;4.88;;;2.67;;
58015;SDS011;43809;52.110;20.964;2023-04-03T07:31:57;3.15;;;2.25;;
58015;SDS011;43809;52.110;20.964;2023-04-03T07:33:57;3.70;;;1.80;;
58015;SDS011;43809;52.110;20.964;2023-04-03T07:35:57;2.60;;;1.65;;
58015;SDS011;43809;52.110;20.964;2023-04-03T07:37:57;3.78;;;1.48;;
58015;SDS011;43809;52.110;20.964;2023-04-03T07:39:58;3.63;;;1.40;;
58015;SDS011;43809;52.110;20.964;2023-04-03T07:41:59;3.17;;;1.70;;
58015;SDS011;43809;52.110;20.964;2023-04-03T07:43:59;5.03;;;1.60;;
58015;SDS011;43809;52.110;20.964;2023-04-03T07:46:00;3.47;;;1.50;;
58015;SDS011;43809;52.110;20.964;2023-04-03T07:48:01;4.38;;;2.38;;
58015;SDS011;43809;52.110;20.964;2023-04-03T07:50:01;6.95;;;4.47;;
58015;SDS011;43809;52.110;20.964;2023-04-03T07:52:02;5.35;;;2.20;;
58015;SDS011;43809;52.110;20.964;2023-04-03T07:54:02;4.75;;;3.10;;
58015;SDS011;43809;52.110;20.964;2023-04-03T07:56:02;3.13;;;1.90;;
58015;SDS011;43809;52.110;20.964;2023-04-03T07:58:02;4.80;;;3.05;;
58015;SDS011;43809;52.110;20.964;2023-04-03T08:00:04;7.72;;;3.65;;
58015;SDS011;43809;52.110;20.964;2023-04-03T08:02:04;9.77;;;5.50;;
58015;SDS011;43809;52.110;20.964;2023-04-03T08:04:05;12.10;;;6.97;;
58015;SDS011;43809;52.110;20.964;2023-04-03T08:06:07;15.98;;;8.88;;
58015;SDS011;43809;52.110;20.964;2023-04-03T08:08:07;14.65;;;8.02;;
58015;SDS011;43809;52.110;20.964;2023-04-03T08:10:08;8.88;;;4.78;;
58015;SDS011;43809;52.110;20.964;2023-04-03T08:12:08;6.63;;;3.40;;
58015;SDS011;43809;52.110;20.964;2023-04-03T08:16:16;5.30;;;3.25;;
58015;SDS011;43809;52.110;20.964;2023-04-03T08:18:17;5.93;;;3.30;;
58015;SDS011;43809;52.110;20.964;2023-04-03T08:20:18;5.70;;;3.88;;
58015;SDS011;43809;52.110;20.964;2023-04-03T08:22:18;9.63;;;5.53;;
58015;SDS011;43809;52.110;20.964;2023-04-03T08:24:19;8.43;;;4.65;;
58015;SDS011;43809;52.110;20.964;2023-04-03T08:26:20;3.03;;;1.88;;
58015;SDS011;43809;52.110;20.964;2023-04-03T08:28:22;2.83;;;1.75;;
58015;SDS011;43809;52.110;20.964;2023-04-03T08:30:22;3.28;;;2.00;;
58015;SDS011;43809;52.110;20.964;2023-04-03T08:32:22;5.80;;;3.22;;
58015;SDS011;43809;52.110;20.964;2023-04-03T08:34:23;6.07;;;1.98;;
58015;SDS011;43809;52.110;20.964;2023-04-03T08:36:24;5.45;;;2.30;;
58015;SDS011;43809;52.110;20.964;2023-04-03T08:38:25;2.70;;;1.40;;
58015;SDS011;43809;52.110;20.964;2023-04-03T08:40:25;1.52;;;1.10;;
58015;SDS011;43809;52.110;20.964;2023-04-03T08:44:39;5.75;;;2.70;;
58015;SDS011;43809;52.110;20.964;2023-04-03T08:48:55;15.82;;;6.22;;
58015;SDS011;43809;52.110;20.964;2023-04-03T08:50:58;13.93;;;6.45;;
58015;SDS011;43809;52.110;20.964;2023-04-03T08:52:59;18.55;;;7.25;;
58015;SDS011;43809;52.110;20.964;2023-04-03T08:55:03;8.57;;;3.97;;
58015;SDS011;43809;52.110;20.964;2023-04-03T08:57:04;2.85;;;1.60;;
58015;SDS011;43809;52.110;20.964;2023-04-03T08:59:14;5.22;;;2.70;;
58015;SDS011;43809;52.110;20.964;2023-04-03T09:01:19;3.65;;;1.80;;
58015;SDS011;43809;52.110;20.964;2023-04-03T09:06:06;2.42;;;1.40;;
58015;SDS011;43809;52.110;20.964;2023-04-03T09:07:54;2.90;;;1.42;;
58015;SDS011;43809;52.110;20.964;2023-04-03T09:09:59;2.15;;;1.30;;
58015;SDS011;43809;52.110;20.964;2023-04-03T09:12:06;2.35;;;1.40;;
58015;SDS011;43809;52.110;20.964;2023-04-03T09:18:32;4.43;;;1.40;;
58015;SDS011;43809;52.110;20.964;2023-04-03T09:22:44;1.33;;;0.95;;
58015;SDS011;43809;52.110;20.964;2023-04-03T09:24:45;2.95;;;1.80;;
58015;SDS011;43809;52.110;20.964;2023-04-03T09:26:57;3.70;;;2.10;;
58015;SDS011;43809;52.110;20.964;2023-04-03T09:29:00;6.75;;;2.80;;
58015;SDS011;43809;52.110;20.964;2023-04-03T09:33:02;5.80;;;2.65;;
58015;SDS011;43809;52.110;20.964;2023-04-03T09:37:41;9.20;;;3.97;;
58015;SDS011;43809;52.110;20.964;2023-04-03T09:39:52;6.20;;;3.20;;
58015;SDS011;43809;52.110;20.964;2023-04-03T09:44:02;4.10;;;2.42;;
58015;SDS011;43809;52.110;20.964;2023-04-03T09:46:16;2.47;;;1.58;;
58015;SDS011;43809;52.110;20.964;2023-04-03T09:48:18;4.32;;;1.45;;
58015;SDS011;43809;52.110;20.964;2023-04-03T09:50:20;2.90;;;1.40;;
58015;SDS011;43809;52.110;20.964;2023-04-03T09:52:24;3.53;;;2.17;;
58015;SDS011;43809;52.110;20.964;2023-04-03T09:56:31;27.73;;;9.82;;
58015;SDS011;43809;52.110;20.964;2023-04-03T09:58:42;22.30;;;7.82;;
58015;SDS011;43809;52.110;20.964;2023-04-03T10:00:42;22.17;;;12.18;;
58015;SDS011;43809;52.110;20.964;2023-04-03T10:02:43;19.15;;;9.60;;
58015;SDS011;43809;52.110;20.964;2023-04-03T10:04:43;15.55;;;7.70;;
58015;SDS011;43809;52.110;20.964;2023-04-03T10:06:48;8.27;;;4.10;;
58015;SDS011;43809;52.110;20.964;2023-04-03T10:09:02;6.05;;;3.70;;
58015;SDS011;43809;52.110;20.964;2023-04-03T10:11:05;2.47;;;2.13;;
58015;SDS011;43809;52.110;20.964;2023-04-03T10:13:09;3.63;;;2.03;;
58015;SDS011;43809;52.110;20.964;2023-04-03T10:15:11;2.97;;;2.03;;
58015;SDS011;43809;52.110;20.964;2023-04-03T10:19:36;1.55;;;1.30;;
58015;SDS011;43809;52.110;20.964;2023-04-03T10:21:44;2.08;;;1.60;;
58015;SDS011;43809;52.110;20.964;2023-04-03T10:23:49;2.53;;;1.77;;
58015;SDS011;43809;52.110;20.964;2023-04-03T10:30:17;1.73;;;1.30;;
58015;SDS011;43809;52.110;20.964;2023-04-03T10:34:44;1.45;;;1.10;;
58015;SDS011;43809;52.110;20.964;2023-04-03T10:36:50;1.88;;;1.75;;
58015;SDS011;43809;52.110;20.964;2023-04-03T10:41:16;1.85;;;1.60;;
58015;SDS011;43809;52.110;20.964;2023-04-03T10:45:28;2.88;;;1.10;;
58015;SDS011;43809;52.110;20.964;2023-04-03T10:49:37;2.40;;;1.20;;
58015;SDS011;43809;52.110;20.964;2023-04-03T10:51:41;2.53;;;2.00;;
58015;SDS011;43809;52.110;20.964;2023-04-03T10:53:47;2.83;;;1.60;;
58015;SDS011;43809;52.110;20.964;2023-04-03T10:57:49;3.22;;;2.00;;
58015;SDS011;43809;52.110;20.964;2023-04-03T10:59:50;4.80;;;2.55;;
58015;SDS011;43809;52.110;20.964;2023-04-03T11:01:53;4.93;;;3.80;;
58015;SDS011;43809;52.110;20.964;2023-04-03T11:03:56;3.28;;;2.45;;
58015;SDS011;43809;52.110;20.964;2023-04-03T11:05:57;2.97;;;1.40;;
58015;SDS011;43809;52.110;20.964;2023-04-03T11:08:01;1.50;;;1.10;;
58015;SDS011;43809;52.110;20.964;2023-04-03T11:10:45;3.03;;;0.90;;
58015;SDS011;43809;52.110;20.964;2023-04-03T11:12:42;2.10;;;1.02;;
58015;SDS011;43809;52.110;20.964;2023-04-03T11:14:43;3.17;;;1.38;;
58015;SDS011;43809;52.110;20.964;2023-04-03T11:16:45;2.72;;;1.27;;
58015;SDS011;43809;52.110;20.964;2023-04-03T11:18:56;2.10;;;1.00;;
58015;SDS011;43809;52.110;20.964;2023-04-03T11:21:00;4.55;;;2.90;;
58015;SDS011;43809;52.110;20.964;2023-04-03T11:27:16;2.92;;;1.83;;
58015;SDS011;43809;52.110;20.964;2023-04-03T11:29:21;2.20;;;1.83;;
58015;SDS011;43809;52.110;20.964;2023-04-03T11:31:26;2.03;;;1.63;;
58015;SDS011;43809;52.110;20.964;2023-04-03T11:33:30;1.52;;;1.30;;
58015;SDS011;43809;52.110;20.964;2023-04-03T11:35:33;1.35;;;0.90;;
58015;SDS011;43809;52.110;20.964;2023-04-03T11:37:36;3.28;;;1.20;;
58015;SDS011;43809;52.110;20.964;2023-04-03T11:39:38;2.88;;;2.08;;
58015;SDS011;43809;52.110;20.964;2023-04-03T11:41:39;6.68;;;3.42;;
58015;SDS011;43809;52.110;20.964;2023-04-03T11:43:55;22.92;;;8.95;;
58015;SDS011;43809;52.110;20.964;2023-04-03T11:46:03;32.17;;;12.20;;
58015;SDS011;43809;52.110;20.964;2023-04-03T11:48:05;12.48;;;5.35;;
58015;SDS011;43809;52.110;20.964;2023-04-03T11:50:06;15.55;;;7.72;;
58015;SDS011;43809;52.110;20.964;2023-04-03T11:52:09;7.38;;;3.92;;
58015;SDS011;43809;52.110;20.964;2023-04-03T11:56:29;4.75;;;2.75;;
58015;SDS011;43809;52.110;20.964;2023-04-03T11:58:31;2.58;;;2.38;;
58015;SDS011;43809;52.110;20.964;2023-04-03T12:02:47;3.95;;;1.70;;
58015;SDS011;43809;52.110;20.964;2023-04-03T12:07:12;2.17;;;1.20;;
58015;SDS011;43809;52.110;20.964;2023-04-03T12:09:34;3.22;;;1.27;;
58015;SDS011;43809;52.110;20.964;2023-04-03T12:11:35;2.53;;;1.00;;
58015;SDS011;43809;52.110;20.964;2023-04-03T12:17:36;3.17;;;0.97;;
58015;SDS011;43809;52.110;20.964;2023-04-03T12:19:37;1.92;;;0.82;;
58015;SDS011;43809;52.110;20.964;2023-04-03T12:23:57;2.40;;;0.98;;
58015;SDS011;43809;52.110;20.964;2023-04-03T12:28:17;3.13;;;1.00;;
58015;SDS011;43809;52.110;20.964;2023-04-03T12:30:27;1.60;;;0.82;;
58015;SDS011;43809;52.110;20.964;2023-04-03T12:36:44;2.20;;;1.02;;
58015;SDS011;43809;52.110;20.964;2023-04-03T12:39:05;1.38;;;1.08;;
58015;SDS011;43809;52.110;20.964;2023-04-03T12:45:40;1.75;;;1.20;;
58015;SDS011;43809;52.110;20.964;2023-04-03T12:47:41;2.38;;;1.50;;
58015;SDS011;43809;52.110;20.964;2023-04-03T12:49:42;2.22;;;1.33;;
58015;SDS011;43809;52.110;20.964;2023-04-03T12:51:46;2.55;;;1.60;;
58015;SDS011;43809;52.110;20.964;2023-04-03T12:53:46;4.43;;;2.20;;
58015;SDS011;43809;52.110;20.964;2023-04-03T12:55:47;3.55;;;1.63;;
58015;SDS011;43809;52.110;20.964;2023-04-03T12:57:47;1.23;;;0.88;;
58015;SDS011;43809;52.110;20.964;2023-04-03T12:59:47;1.35;;;1.25;;
58015;SDS011;43809;52.110;20.964;2023-04-03T13:01:55;5.05;;;4.03;;
58015;SDS011;43809;52.110;20.964;2023-04-03T13:03:56;4.80;;;3.05;;
58015;SDS011;43809;52.110;20.964;2023-04-03T13:05:58;3.97;;;1.80;;
58015;SDS011;43809;52.110;20.964;2023-04-03T13:10:09;2.53;;;1.20;;
58015;SDS011;43809;52.110;20.964;2023-04-03T13:12:14;3.85;;;2.20;;
58015;SDS011;43809;52.110;20.964;2023-04-03T13:16:15;1.35;;;0.90;;
58015;SDS011;43809;52.110;20.964;2023-04-03T13:18:24;2.03;;;1.50;;
58015;SDS011;43809;52.110;20.964;2023-04-03T13:22:39;2.72;;;1.02;;
58015;SDS011;43809;52.110;20.964;2023-04-03T13:24:43;1.50;;;0.80;;
58015;SDS011;43809;52.110;20.964;2023-04-03T13:26:44;1.73;;;0.80;;